Time;durP1;ratioP1;P1;durP2;ratioP2;P2;SDS_P1;SDS_P2;PMS_P1;PMS_P2;Temp;Humidity;BMP_temperature;BMP_pressure;BME280_temperature;BME280_humidity;BME280_pressure;Samples;Min_cycle;Max_cycle;Signal;HPM_P1;HPM_P2
2022/03/19 00:01:09;;;;;;;25.60;21.15;;;25.40;99.90;;;;;;4157349;28;20403;-74
2022/03/19 00:03:15;;;;;;;25.58;20.55;;;25.40;99.90;;;;;;4158872;28;20041;-73
2022/03/19 00:05:24;;;;;;;25.58;19.15;;;25.40;99.90;;;;;;4156488;28;20776;-74
2022/03/19 00:07:29;;;;;;;25.27;19.25;;;25.40;99.90;;;;;;4159826;28;20052;-72
2022/03/19 00:09:34;;;;;;;28.88;19.70;;;25.50;99.90;;;;;;4154836;28;20107;-74
2022/03/19 00:11:39;;;;;;;22.83;17.85;;;25.50;99.90;;;;;;4159949;28;20053;-69
2022/03/19 00:13:44;;;;;;;22.08;18.73;;;25.60;99.90;;;;;;4159187;28;20124;-71
2022/03/19 00:15:50;;;;;;;23.00;18.77;;;25.50;99.90;;;;;;4158744;28;20041;-71
2022/03/19 00:17:57;;;;;;;28.52;20.17;;;25.60;99.90;;;;;;4159482;28;20048;-71
2022/03/19 00:20:04;;;;;;;30.67;23.90;;;25.60;99.90;;;;;;4162290;28;20491;-71
2022/03/19 00:22:13;;;;;;;31.27;23.38;;;25.60;99.90;;;;;;4162367;28;20124;-70
2022/03/19 00:24:18;;;;;;;27.30;23.48;;;25.60;99.90;;;;;;4184744;28;20484;-72
2022/03/19 00:26:24;;;;;;;27.50;21.88;;;25.60;99.90;;;;;;4163435;28;20056;-73
2022/03/19 00:28:29;;;;;;;29.02;22.83;;;25.60;99.90;;;;;;4179213;28;20102;-71
2022/03/19 00:30:37;;;;;;;30.98;22.88;;;25.60;99.90;;;;;;4162036;28;20041;-72
2022/03/19 00:32:42;;;;;;;27.23;21.55;;;25.70;99.90;;;;;;4163311;28;20052;-71
2022/03/19 00:34:46;;;;;;;34.05;23.45;;;25.60;99.90;;;;;;4161192;28;20108;-72
2022/03/19 00:36:53;;;;;;;31.73;23.52;;;25.60;99.90;;;;;;4160329;28;20446;-72
2022/03/19 00:38:57;;;;;;;36.58;25.17;;;25.60;99.90;;;;;;4161421;28;20121;-73
2022/03/19 00:41:03;;;;;;;37.53;25.38;;;25.60;99.90;;;;;;4159796;28;20037;-72
2022/03/19 00:43:12;;;;;;;32.70;26.05;;;25.60;99.90;;;;;;4162511;28;20068;-72
2022/03/19 00:45:17;;;;;;;30.83;24.35;;;25.40;99.90;;;;;;4162816;28;20064;-72
2022/03/19 00:47:29;;;;;;;31.98;24.75;;;25.30;99.90;;;;;;4160578;28;20045;-73
2022/03/19 00:49:38;;;;;;;28.70;25.42;;;25.50;99.90;;;;;;4160090;28;20061;-73
2022/03/19 00:51:42;;;;;;;32.47;26.90;;;25.50;99.90;;;;;;4160065;28;20054;-68
2022/03/19 00:53:48;;;;;;;30.90;26.33;;;25.60;99.90;;;;;;4161979;28;20037;-69
2022/03/19 00:55:55;;;;;;;32.25;28.35;;;25.60;99.90;;;;;;4159695;28;20049;-67
2022/03/19 00:58:00;;;;;;;31.88;28.48;;;25.60;99.90;;;;;;4163247;28;20496;-68
2022/03/19 01:00:11;;;;;;;34.25;28.45;;;25.40;99.90;;;;;;4163091;28;20034;-68
2022/03/19 01:02:43;;;;;;;33.95;26.77;;;25.40;99.90;;;;;;4179244;28;20057;-67
2022/03/19 01:04:48;;;;;;;29.90;26.33;;;25.60;99.90;;;;;;4163116;28;20092;-68
2022/03/19 01:06:53;;;;;;;29.00;23.98;;;25.70;99.90;;;;;;4162187;28;20045;-68
2022/03/19 01:09:00;;;;;;;35.35;25.05;;;25.70;99.90;;;;;;4163464;28;20670;-68
2022/03/19 01:11:05;;;;;;;28.98;24.63;;;25.70;99.90;;;;;;4163849;28;20416;-67
2022/03/19 01:13:11;;;;;;;32.30;24.83;;;25.70;99.90;;;;;;4163386;28;20037;-68
2022/03/19 01:15:22;;;;;;;31.20;24.55;;;25.50;99.90;;;;;;4161940;28;20041;-69
2022/03/19 01:17:28;;;;;;;29.25;24.05;;;25.60;99.90;;;;;;4160910;28;20037;-68
2022/03/19 01:22:03;;;;;;;32.08;24.70;;;25.60;99.90;;;;;;4162959;28;20038;-68
2022/03/19 01:24:09;;;;;;;31.70;25.27;;;25.60;99.90;;;;;;4160940;28;20393;-68
2022/03/19 01:26:13;;;;;;;29.13;23.95;;;25.70;99.90;;;;;;4163256;28;20124;-68
2022/03/19 01:28:21;;;;;;;26.02;21.77;;;25.70;99.90;;;;;;4162439;28;20056;-68
2022/03/19 01:30:26;;;;;;;28.23;22.70;;;25.60;99.90;;;;;;4161999;28;20107;-69
2022/03/19 01:32:51;;;;;;;24.42;20.90;;;25.80;99.90;;;;;;4160154;28;20069;-68
2022/03/19 01:35:02;;;;;;;23.48;19.98;;;25.80;99.90;;;;;;4140790;28;20878;-69
2022/03/19 01:37:08;;;;;;;22.92;20.30;;;25.80;99.90;;;;;;4161683;28;20046;-69
2022/03/19 01:39:15;;;;;;;27.30;20.50;;;25.80;99.90;;;;;;4163190;28;20492;-69
2022/03/19 01:41:23;;;;;;;31.30;20.77;;;25.90;99.90;;;;;;4160932;28;20045;-68
2022/03/19 01:43:28;;;;;;;24.83;19.15;;;26.00;99.90;;;;;;4137358;28;20041;-69
2022/03/19 01:45:34;;;;;;;22.30;19.05;;;26.20;99.90;;;;;;4160041;28;20045;-68
2022/03/19 01:47:44;;;;;;;24.50;19.55;;;26.30;99.90;;;;;;4160684;28;20081;-68
2022/03/19 01:49:51;;;;;;;22.13;19.77;;;26.20;99.90;;;;;;4159672;28;20107;-67
2022/03/19 01:51:56;;;;;;;22.50;18.80;;;26.10;99.90;;;;;;4159639;28;20566;-68
2022/03/19 01:54:01;;;;;;;27.13;18.88;;;26.20;99.90;;;;;;4159977;28;20041;-68
2022/03/19 01:56:07;;;;;;;19.42;15.73;;;26.20;99.90;;;;;;4158562;28;20064;-68
2022/03/19 01:58:11;;;;;;;18.02;14.93;;;26.10;99.90;;;;;;4159335;28;20065;-68
2022/03/19 02:00:19;;;;;;;18.13;14.75;;;26.10;99.90;;;;;;4125185;28;20065;-71
2022/03/19 02:02:25;;;;;;;16.65;14.63;;;26.10;99.90;;;;;;4160067;28;20508;-70
2022/03/19 02:04:35;;;;;;;18.17;15.15;;;26.20;99.90;;;;;;4158383;28;20049;-70
2022/03/19 02:06:45;;;;;;;15.68;13.40;;;26.30;99.90;;;;;;4157822;28;20053;-69
2022/03/19 02:08:50;;;;;;;17.52;15.27;;;26.30;99.90;;;;;;4161133;28;20049;-70
2022/03/19 02:10:56;;;;;;;22.50;14.93;;;26.40;99.90;;;;;;4159885;28;20042;-67
2022/03/19 02:13:05;;;;;;;20.38;13.75;;;26.60;99.90;;;;;;4158533;28;20559;-68
2022/03/19 02:15:16;;;;;;;14.75;13.02;;;26.70;99.90;;;;;;4159148;28;20041;-72
2022/03/19 02:17:24;;;;;;;17.90;12.38;;;26.90;99.90;;;;;;4160928;28;20041;-72
2022/03/19 02:19:32;;;;;;;13.98;12.23;;;26.90;99.90;;;;;;4162021;28;20626;-71
2022/03/19 02:21:42;;;;;;;16.08;13.68;;;26.90;99.90;;;;;;4185553;28;20045;-71
2022/03/19 02:26:18;;;;;;;16.30;14.63;;;26.80;99.90;;;;;;4162022;28;20046;-70
2022/03/19 02:28:24;;;;;;;15.27;13.68;;;27.00;99.90;;;;;;4160922;28;20557;-71
2022/03/19 02:30:29;;;;;;;14.85;13.15;;;27.10;99.90;;;;;;4162834;28;20045;-73
2022/03/19 02:32:47;;;;;;;13.57;12.18;;;27.10;99.90;;;;;;4162194;28;20124;-71
2022/03/19 02:34:53;;;;;;;13.48;12.07;;;27.10;99.90;;;;;;4160798;28;20034;-71
2022/03/19 02:36:58;;;;;;;13.35;11.93;;;27.10;99.90;;;;;;4162649;28;20038;-72
2022/03/19 02:39:18;;;;;;;15.57;12.80;;;27.20;99.90;;;;;;4159194;28;20044;-72
2022/03/19 02:41:27;;;;;;;12.73;11.15;;;27.40;99.90;;;;;;4160369;28;20064;-71
2022/03/19 02:43:33;;;;;;;13.15;11.52;;;27.40;99.90;;;;;;4163557;28;20399;-71
2022/03/19 02:45:46;;;;;;;13.23;11.52;;;27.40;99.90;;;;;;4163301;28;20100;-72
2022/03/19 02:47:58;;;;;;;14.65;11.82;;;27.50;99.90;;;;;;4162094;28;20041;-73
2022/03/19 02:50:04;;;;;;;12.35;10.98;;;27.60;99.90;;;;;;4160826;28;20425;-73
2022/03/19 02:52:14;;;;;;;11.55;10.32;;;27.50;99.90;;;;;;4161302;28;20095;-74
2022/03/19 02:54:30;;;;;;;11.27;10.10;;;27.50;99.90;;;;;;4162053;28;20041;-73
2022/03/19 02:56:37;;;;;;;12.93;10.88;;;27.70;99.90;;;;;;4159111;28;20049;-69
2022/03/19 02:58:45;;;;;;;12.85;10.82;;;27.80;99.90;;;;;;4162826;28;20513;-72
2022/03/19 03:00:51;;;;;;;14.00;11.43;;;27.80;99.90;;;;;;4160840;28;20045;-71
2022/03/19 03:02:57;;;;;;;14.07;11.13;;;27.90;99.90;;;;;;4161740;28;20037;-71
2022/03/19 03:05:05;;;;;;;13.25;11.40;;;28.00;99.90;;;;;;4161643;28;20049;-71
2022/03/19 03:07:10;;;;;;;13.55;11.82;;;28.00;99.90;;;;;;4159681;28;20068;-71
2022/03/19 03:09:17;;;;;;;14.02;11.88;;;28.10;99.90;;;;;;4160702;28;20119;-72
2022/03/19 03:11:25;;;;;;;13.88;11.80;;;28.10;99.90;;;;;;4161627;28;20136;-71
2022/03/19 03:13:30;;;;;;;13.90;10.82;;;28.20;99.90;;;;;;4183288;28;20526;-71
2022/03/19 03:15:35;;;;;;;14.35;11.30;;;28.30;99.90;;;;;;4160648;28;20053;-70
2022/03/19 03:17:44;;;;;;;13.18;11.30;;;28.40;99.90;;;;;;4162473;28;20087;-70
2022/03/19 03:19:51;;;;;;;15.57;11.90;;;28.50;99.90;;;;;;4160418;28;20053;-73
2022/03/19 03:21:56;;;;;;;13.45;11.73;;;28.60;99.90;;;;;;4162224;28;20049;-70
2022/03/19 03:24:04;;;;;;;16.05;10.93;;;28.70;99.90;;;;;;4160395;28;20049;-71
2022/03/19 03:26:09;;;;;;;12.52;11.15;;;28.80;99.90;;;;;;4160807;28;20103;-72
2022/03/19 03:28:15;;;;;;;14.45;12.15;;;28.80;99.90;;;;;;4161709;28;20052;-71
2022/03/19 03:30:23;;;;;;;15.07;12.55;;;28.80;99.90;;;;;;4162539;28;20532;-71
2022/03/19 03:32:28;;;;;;;14.75;12.70;;;28.90;99.90;;;;;;4159152;28;20041;-73
2022/03/19 03:34:34;;;;;;;16.15;13.40;;;28.90;99.90;;;;;;4162236;28;20063;-72
2022/03/19 03:36:40;;;;;;;15.18;13.52;;;28.90;99.90;;;;;;4162212;28;20416;-72
2022/03/19 03:38:45;;;;;;;16.40;12.82;;;28.90;99.90;;;;;;4160585;28;20700;-70
2022/03/19 03:40:50;;;;;;;15.80;13.32;;;28.90;99.90;;;;;;4162259;28;20091;-70
2022/03/19 03:43:01;;;;;;;14.55;12.93;;;29.00;99.90;;;;;;4162982;28;20468;-70
2022/03/19 03:45:07;;;;;;;13.93;11.82;;;28.90;99.90;;;;;;4164944;28;20044;-70
2022/03/19 03:47:12;;;;;;;16.95;12.98;;;29.00;99.90;;;;;;4164036;28;20503;-69
2022/03/19 03:49:21;;;;;;;21.75;12.80;;;29.00;99.90;;;;;;4165387;28;20033;-71
2022/03/19 03:51:26;;;;;;;14.18;12.63;;;29.10;99.90;;;;;;4165459;28;20510;-70
2022/03/19 03:53:31;;;;;;;12.60;11.25;;;29.10;99.90;;;;;;4165363;28;20498;-70
2022/03/19 03:55:37;;;;;;;14.40;11.80;;;29.20;99.90;;;;;;4165491;28;20072;-71
2022/03/19 03:57:42;;;;;;;12.63;9.80;;;29.20;99.90;;;;;;4163366;28;20053;-73
2022/03/19 03:59:50;;;;;;;13.48;11.15;;;29.30;99.90;;;;;;4165203;28;20045;-72
2022/03/19 04:01:59;;;;;;;15.00;12.20;;;29.40;99.90;;;;;;4165094;28;20054;-73
2022/03/19 04:04:04;;;;;;;16.30;13.13;;;29.40;99.90;;;;;;4163391;28;20688;-71
2022/03/19 04:06:08;;;;;;;18.83;12.32;;;29.40;99.90;;;;;;4163407;28;20135;-70
2022/03/19 04:08:17;;;;;;;13.00;11.60;;;29.50;99.90;;;;;;4164002;28;20392;-70
2022/03/19 04:10:22;;;;;;;14.63;12.00;;;29.50;99.90;;;;;;4163301;28;20045;-70
2022/03/19 04:12:27;;;;;;;15.27;12.32;;;29.60;99.90;;;;;;4164723;28;20107;-70
2022/03/19 04:14:35;;;;;;;12.63;11.30;;;29.60;99.90;;;;;;4165086;28;20132;-69
2022/03/19 04:16:40;;;;;;;14.48;11.20;;;29.70;99.90;;;;;;4163938;28;20072;-71
2022/03/19 04:18:45;;;;;;;12.45;11.13;;;29.70;99.90;;;;;;4164785;28;20049;-70
2022/03/19 04:20:51;;;;;;;12.80;10.38;;;29.80;99.90;;;;;;4158974;28;20096;-70
2022/03/19 04:22:56;;;;;;;12.50;11.10;;;29.90;99.60;;;;;;4162749;28;20520;-70
2022/03/19 04:25:01;;;;;;;11.38;10.13;;;29.90;99.20;;;;;;4160446;28;20107;-70
2022/03/19 04:27:10;;;;;;;11.80;10.15;;;29.90;98.10;;;;;;4161720;28;20068;-71
2022/03/19 04:29:15;;;;;;;13.80;10.45;;;29.90;97.60;;;;;;4161938;28;20103;-70
2022/03/19 04:31:19;;;;;;;10.93;9.52;;;29.70;97.90;;;;;;4162482;28;20627;-70
2022/03/19 04:33:29;;;;;;;10.88;9.15;;;29.80;97.30;;;;;;4161449;28;20063;-70
2022/03/19 04:37:53;;;;;;;13.40;10.00;;;29.90;96.70;;;;;;4161117;28;20041;-68
2022/03/19 04:40:05;;;;;;;10.82;9.80;;;30.00;96.50;;;;;;4161957;28;20815;-69
2022/03/19 04:42:10;;;;;;;10.40;9.32;;;29.90;97.30;;;;;;4162294;28;20042;-69
2022/03/19 04:44:17;;;;;;;11.38;9.23;;;30.00;97.50;;;;;;4161352;28;20064;-69
2022/03/19 04:46:24;;;;;;;9.85;8.85;;;30.10;97.80;;;;;;4142808;28;20127;-71
2022/03/19 04:48:30;;;;;;;12.15;9.00;;;30.20;97.80;;;;;;4161646;28;20103;-70
2022/03/19 04:50:43;;;;;;;11.73;9.10;;;30.30;97.60;;;;;;4161504;28;20079;-72
2022/03/19 04:52:52;;;;;;;11.02;9.18;;;30.30;97.50;;;;;;4162837;28;20077;-68
2022/03/19 04:55:00;;;;;;;10.38;8.77;;;30.40;96.40;;;;;;4163834;28;20038;-68
2022/03/19 04:57:06;;;;;;;9.98;8.65;;;30.30;96.50;;;;;;4162956;28;20081;-68
2022/03/19 04:59:15;;;;;;;8.68;7.78;;;30.30;96.40;;;;;;4163908;28;20071;-68
2022/03/19 05:01:19;;;;;;;11.50;8.95;;;30.40;96.60;;;;;;4163828;28;20099;-68
2022/03/19 05:03:24;;;;;;;10.93;8.65;;;30.40;96.30;;;;;;4163320;28;20041;-70
2022/03/19 05:05:32;;;;;;;9.68;8.77;;;30.50;96.10;;;;;;4163103;28;20046;-69
2022/03/19 05:07:37;;;;;;;9.27;8.38;;;30.50;96.10;;;;;;4163915;28;20041;-70
2022/03/19 05:12:01;;;;;;;9.40;8.48;;;30.70;96.00;;;;;;4161335;28;20138;-69
2022/03/19 05:14:06;;;;;;;10.90;8.88;;;30.80;96.00;;;;;;4160172;28;20436;-69
2022/03/19 05:16:11;;;;;;;9.43;8.52;;;30.90;95.60;;;;;;4159880;28;20441;-69
2022/03/19 05:18:18;;;;;;;10.27;9.05;;;30.80;95.20;;;;;;4159688;28;20144;-69
2022/03/19 05:20:23;;;;;;;9.43;8.52;;;30.90;95.10;;;;;;4160998;28;20440;-69
2022/03/19 05:22:29;;;;;;;10.27;9.27;;;30.90;95.40;;;;;;4161499;28;20045;-69
2022/03/19 05:24:37;;;;;;;11.60;10.02;;;31.00;94.70;;;;;;4161183;28;20052;-67
2022/03/19 05:26:42;;;;;;;10.40;9.30;;;31.00;95.00;;;;;;4160568;28;20500;-69
2022/03/19 05:28:47;;;;;;;10.57;9.43;;;31.00;95.00;;;;;;4160711;28;20516;-70
2022/03/19 05:31:10;;;;;;;9.98;8.98;;;31.00;95.10;;;;;;4114616;28;20090;-68
2022/03/19 05:33:15;;;;;;;11.85;9.43;;;31.00;95.10;;;;;;4160554;28;20048;-69
2022/03/19 05:35:21;;;;;;;10.20;9.20;;;31.00;95.20;;;;;;4161458;28;20053;-69
2022/03/19 05:37:29;;;;;;;10.00;9.00;;;31.00;95.00;;;;;;4159772;28;20045;-69
2022/03/19 05:39:34;;;;;;;10.23;9.15;;;31.00;95.00;;;;;;4161875;28;20060;-69
2022/03/19 05:41:39;;;;;;;10.63;9.52;;;31.00;94.70;;;;;;4158227;28;20629;-69
2022/03/19 05:43:46;;;;;;;9.80;8.80;;;31.00;94.60;;;;;;4161652;28;20037;-69
2022/03/19 05:45:52;;;;;;;10.27;9.27;;;31.10;94.80;;;;;;4161625;28;20682;-69
2022/03/19 05:47:57;;;;;;;9.73;8.73;;;31.20;95.10;;;;;;4161498;28;20060;-69
2022/03/19 05:50:07;;;;;;;10.27;9.02;;;31.20;95.30;;;;;;4163521;28;20076;-69
2022/03/19 05:52:11;;;;;;;12.10;9.75;;;31.20;95.30;;;;;;4163259;28;20049;-68
2022/03/19 05:54:16;;;;;;;11.85;9.57;;;31.20;95.00;;;;;;4162011;28;20041;-69
2022/03/19 05:56:25;;;;;;;11.52;9.80;;;31.30;95.10;;;;;;4163491;28;20076;-68
2022/03/19 05:58:30;;;;;;;10.43;9.00;;;31.30;94.90;;;;;;4162889;28;20038;-68
2022/03/19 06:00:34;;;;;;;10.60;9.48;;;31.40;94.90;;;;;;4163207;28;20449;-68
2022/03/19 06:02:43;;;;;;;10.07;9.02;;;31.40;94.90;;;;;;4163268;28;20044;-67
2022/03/19 06:04:54;;;;;;;11.95;8.77;;;31.40;95.00;;;;;;4162483;28;20046;-69
2022/03/19 06:06:58;;;;;;;9.73;8.73;;;31.40;94.90;;;;;;4163555;28;20041;-68
2022/03/19 06:09:10;;;;;;;11.40;9.38;;;31.40;95.00;;;;;;4143844;28;20092;-68
2022/03/19 06:11:14;;;;;;;9.77;8.77;;;31.50;94.90;;;;;;4162807;28;20043;-69
2022/03/19 06:13:19;;;;;;;10.43;9.13;;;31.60;94.90;;;;;;4162428;28;20081;-68
2022/03/19 06:15:27;;;;;;;10.65;9.55;;;31.60;94.90;;;;;;4162909;28;20058;-68
2022/03/19 06:17:32;;;;;;;10.20;8.93;;;31.60;95.00;;;;;;4161806;28;20053;-68
2022/03/19 06:19:37;;;;;;;10.15;9.10;;;31.60;94.90;;;;;;4162965;28;20099;-68
2022/03/19 06:21:44;;;;;;;13.70;9.52;;;31.60;94.60;;;;;;4161714;28;20052;-69
2022/03/19 06:23:52;;;;;;;12.40;10.15;;;31.60;94.80;;;;;;4162695;28;20528;-68
2022/03/19 06:25:58;;;;;;;12.32;9.43;;;31.60;94.60;;;;;;4162680;28;20065;-68
2022/03/19 06:28:07;;;;;;;11.25;9.70;;;31.70;94.60;;;;;;4162337;28;20041;-68
2022/03/19 06:30:12;;;;;;;10.40;9.40;;;31.70;94.40;;;;;;4162946;28;20075;-69
2022/03/19 06:32:20;;;;;;;9.63;8.63;;;31.70;94.10;;;;;;4162704;28;20047;-68
2022/03/19 06:34:30;;;;;;;12.60;8.70;;;31.70;94.20;;;;;;4162819;28;20050;-70
2022/03/19 06:38:53;;;;;;;10.90;9.80;;;31.70;94.00;;;;;;4161321;28;20503;-68
2022/03/19 06:40:59;;;;;;;10.95;9.68;;;31.70;94.10;;;;;;4162426;28;20053;-69
2022/03/19 06:43:03;;;;;;;11.20;9.43;;;31.70;94.30;;;;;;4162195;28;20049;-67
2022/03/19 06:45:13;;;;;;;10.63;9.60;;;31.70;94.30;;;;;;4162429;28;20057;-68
2022/03/19 06:47:23;;;;;;;11.07;9.93;;;31.70;94.10;;;;;;4163048;28;20412;-69
2022/03/19 06:49:29;;;;;;;12.57;9.75;;;31.60;94.20;;;;;;4162209;28;20140;-67
2022/03/19 06:51:36;;;;;;;10.13;9.13;;;31.60;94.30;;;;;;4162321;28;20048;-68
2022/03/19 06:53:43;;;;;;;11.40;10.10;;;31.60;93.80;;;;;;4162837;28;20107;-68
2022/03/19 06:55:48;;;;;;;10.38;9.32;;;31.40;93.90;;;;;;4161914;28;20427;-68
2022/03/19 06:57:53;;;;;;;11.45;9.10;;;31.40;94.40;;;;;;4159446;28;20068;-69
2022/03/19 07:00:02;;;;;;;10.90;9.57;;;31.40;94.20;;;;;;4124643;28;20129;-67
2022/03/19 07:02:07;;;;;;;11.38;9.48;;;31.30;94.10;;;;;;4161985;28;20476;-68
2022/03/19 07:04:13;;;;;;;10.80;9.70;;;31.30;94.20;;;;;;4160165;28;20068;-68
2022/03/19 07:06:19;;;;;;;10.13;9.07;;;31.30;94.30;;;;;;4162324;28;20613;-68
2022/03/19 07:08:45;;;;;;;14.15;10.05;;;31.20;94.10;;;;;;4160254;28;20460;-68
2022/03/19 07:10:50;;;;;;;10.52;9.43;;;31.20;94.10;;;;;;4160258;28;20115;-68
2022/03/19 07:12:56;;;;;;;11.60;10.00;;;31.10;94.30;;;;;;4160854;28;20057;-67
2022/03/19 07:15:01;;;;;;;9.90;8.90;;;31.10;94.30;;;;;;4160939;28;20060;-69
2022/03/19 07:17:07;;;;;;;16.23;13.55;;;31.10;94.50;;;;;;4159963;28;20069;-69
2022/03/19 07:19:13;;;;;;;15.32;13.02;;;31.10;94.30;;;;;;4159753;28;20515;-68
2022/03/19 07:21:18;;;;;;;16.08;13.45;;;31.10;94.50;;;;;;4161493;28;20048;-68
2022/03/19 07:23:26;;;;;;;14.98;13.40;;;31.10;94.50;;;;;;4159223;28;20547;-68
2022/03/19 07:25:35;;;;;;;14.15;12.65;;;31.10;94.60;;;;;;4161349;28;20102;-68
2022/03/19 07:27:42;;;;;;;13.18;11.80;;;31.10;94.60;;;;;;4161263;28;20041;-69
2022/03/19 07:29:47;;;;;;;14.30;12.25;;;31.10;94.50;;;;;;4160568;28;20059;-68
2022/03/19 07:31:55;;;;;;;15.77;14.02;;;31.10;94.50;;;;;;4160487;28;20053;-68
2022/03/19 07:34:00;;;;;;;17.90;15.88;;;31.20;94.60;;;;;;4160887;28;20492;-68
2022/03/19 07:36:06;;;;;;;16.42;14.82;;;31.30;94.70;;;;;;4162085;28;20041;-68
2022/03/19 07:38:11;;;;;;;15.90;14.27;;;31.30;94.70;;;;;;4161956;28;20045;-68
2022/03/19 07:42:42;;;;;;;14.02;12.60;;;31.20;94.60;;;;;;4162214;28;20041;-68
2022/03/19 07:44:52;;;;;;;14.38;12.45;;;31.20;94.50;;;;;;4160814;28;20050;-68
2022/03/19 07:46:57;;;;;;;11.80;10.60;;;31.10;94.40;;;;;;4161377;28;20576;-67
2022/03/19 07:49:04;;;;;;;11.52;10.30;;;31.10;94.50;;;;;;4161346;28;20057;-69
2022/03/19 07:51:13;;;;;;;11.95;10.25;;;31.10;94.60;;;;;;4126883;28;20509;-68
2022/03/19 07:53:18;;;;;;;11.40;10.27;;;31.30;95.00;;;;;;4161804;28;20095;-69
2022/03/19 07:55:24;;;;;;;14.60;9.95;;;31.30;95.10;;;;;;4162267;28;20053;-68
2022/03/19 07:57:32;;;;;;;12.00;9.95;;;31.30;95.10;;;;;;4161881;28;20063;-68
2022/03/19 07:59:38;;;;;;;12.10;10.93;;;31.30;95.10;;;;;;4160069;28;20045;-69
2022/03/19 08:01:43;;;;;;;12.38;10.57;;;31.40;94.60;;;;;;4162178;28;20112;-68
2022/03/19 08:03:51;;;;;;;13.90;10.50;;;31.30;94.40;;;;;;4162339;28;20092;-69
2022/03/19 08:05:56;;;;;;;12.73;10.73;;;31.30;94.70;;;;;;4161598;28;20041;-69
2022/03/19 08:08:03;;;;;;;11.55;10.30;;;31.30;94.60;;;;;;4160289;28;20057;-69
2022/03/19 08:10:09;;;;;;;12.02;10.73;;;31.30;94.70;;;;;;4158620;28;20060;-68
2022/03/19 08:12:16;;;;;;;11.63;10.45;;;31.30;94.90;;;;;;4182973;28;20471;-68
2022/03/19 08:14:22;;;;;;;12.05;10.85;;;31.30;94.90;;;;;;4161624;28;20066;-70
2022/03/19 08:16:31;;;;;;;12.30;11.10;;;31.30;94.80;;;;;;4159625;28;20042;-70
2022/03/19 08:18:35;;;;;;;13.20;10.50;;;31.30;94.80;;;;;;4160711;28;20480;-70
2022/03/19 08:20:41;;;;;;;12.02;10.25;;;31.30;94.50;;;;;;4160434;28;20049;-70
2022/03/19 08:22:48;;;;;;;11.80;10.40;;;31.30;94.60;;;;;;4161900;28;20077;-70
2022/03/19 08:24:58;;;;;;;11.23;10.00;;;31.40;94.60;;;;;;4161440;28;20057;-70
2022/03/19 08:27:05;;;;;;;11.88;10.65;;;31.40;95.00;;;;;;4160723;28;20103;-70
2022/03/19 08:29:12;;;;;;;11.80;10.20;;;31.40;94.60;;;;;;4164261;28;20041;-69
2022/03/19 08:31:16;;;;;;;12.05;10.27;;;31.40;94.60;;;;;;4164147;28;20077;-70
2022/03/19 08:33:21;;;;;;;13.27;10.75;;;31.40;94.80;;;;;;4163273;28;20052;-69
2022/03/19 08:35:28;;;;;;;13.23;10.65;;;31.40;95.00;;;;;;4162933;28;20037;-70
2022/03/19 08:37:33;;;;;;;14.73;10.70;;;31.30;95.10;;;;;;4163391;28;20041;-68
2022/03/19 08:41:58;;;;;;;19.63;17.52;;;31.30;95.20;;;;;;4128739;28;20533;-69
2022/03/19 08:44:05;;;;;;;33.15;24.83;;;31.10;95.20;;;;;;4163226;28;20052;-68
2022/03/19 08:46:10;;;;;;;27.85;23.92;;;31.10;95.30;;;;;;4162770;28;20431;-69
2022/03/19 08:48:19;;;;;;;36.67;26.98;;;31.10;95.50;;;;;;4164592;28;20099;-70
2022/03/19 08:50:28;;;;;;;39.90;28.50;;;31.10;95.60;;;;;;4161944;28;20050;-69
2022/03/19 08:52:34;;;;;;;73.68;43.58;;;31.10;95.90;;;;;;4163539;28;20045;-69
2022/03/19 08:54:42;;;;;;;63.75;40.25;;;31.00;95.70;;;;;;4164347;28;20551;-69
2022/03/19 08:56:50;;;;;;;72.28;48.47;;;31.00;95.80;;;;;;4161958;28;20520;-69
2022/03/19 08:58:54;;;;;;;70.05;45.50;;;31.00;95.80;;;;;;4163655;28;20069;-69
2022/03/19 09:01:03;;;;;;;62.30;42.30;;;31.00;95.80;;;;;;4121733;28;20105;-69
2022/03/19 09:03:08;;;;;;;64.13;40.65;;;31.00;95.90;;;;;;4159120;28;20124;-68
2022/03/19 09:05:13;;;;;;;55.05;37.17;;;31.00;96.00;;;;;;4161427;28;20581;-69
2022/03/19 09:07:20;;;;;;;56.25;35.72;;;31.00;96.00;;;;;;4161653;28;20053;-70
2022/03/19 09:09:25;;;;;;;44.40;30.08;;;31.00;96.00;;;;;;4158584;28;20128;-69
2022/03/19 09:11:31;;;;;;;39.75;26.77;;;30.90;96.10;;;;;;4161403;28;20045;-69
2022/03/19 09:13:40;;;;;;;29.95;22.25;;;30.90;96.00;;;;;;4161550;28;20522;-69
2022/03/19 09:15:45;;;;;;;31.15;20.25;;;30.90;96.20;;;;;;4159648;28;20052;-69
2022/03/19 09:17:50;;;;;;;30.58;20.58;;;30.90;96.30;;;;;;4159175;28;20775;-69
2022/03/19 09:19:58;;;;;;;32.85;21.08;;;30.90;96.30;;;;;;4183816;28;20103;-67
2022/03/19 09:22:04;;;;;;;23.98;18.15;;;30.80;96.30;;;;;;4160634;28;20541;-69
2022/03/19 09:24:09;;;;;;;26.77;17.40;;;30.80;96.40;;;;;;4159885;28;20499;-68
2022/03/19 09:26:18;;;;;;;24.67;18.80;;;30.80;96.40;;;;;;4109742;28;20103;-69
2022/03/19 09:28:23;;;;;;;30.23;18.73;;;30.80;96.40;;;;;;4161645;28;20051;-67
2022/03/19 09:30:27;;;;;;;28.70;18.55;;;30.80;96.50;;;;;;4159215;28;20075;-68
2022/03/19 09:32:37;;;;;;;29.48;18.70;;;30.80;96.60;;;;;;4163982;28;20099;-68
2022/03/19 09:34:43;;;;;;;56.17;19.63;;;30.80;96.60;;;;;;4163764;28;20124;-68
2022/03/19 09:36:48;;;;;;;37.10;17.80;;;30.60;97.00;;;;;;4164120;28;20046;-67
2022/03/19 09:38:56;;;;;;;42.67;16.45;;;30.60;97.00;;;;;;4163121;28;20152;-68
2022/03/19 09:41:02;;;;;;;70.32;20.20;;;30.60;96.90;;;;;;4163225;28;20124;-68
2022/03/19 09:43:07;;;;;;;29.30;15.50;;;30.60;97.00;;;;;;4163618;28;20049;-69
2022/03/19 09:45:14;;;;;;;36.42;17.13;;;30.60;97.20;;;;;;4163810;28;20057;-68
2022/03/19 09:47:19;;;;;;;38.85;15.23;;;30.60;97.20;;;;;;4163630;28;20041;-68
2022/03/19 09:49:24;;;;;;;33.47;14.35;;;30.60;97.20;;;;;;4163393;28;20088;-69
2022/03/19 09:51:33;;;;;;;18.58;12.52;;;30.60;97.10;;;;;;4126733;28;20050;-68
2022/03/19 09:53:37;;;;;;;19.02;12.25;;;30.60;97.10;;;;;;4162378;28;20543;-68
2022/03/19 09:56:03;;;;;;;16.23;12.68;;;30.70;97.20;;;;;;4168651;28;20065;-68
2022/03/19 09:58:10;;;;;;;23.15;12.63;;;30.70;97.10;;;;;;4162538;28;20054;-68
2022/03/19 10:00:15;;;;;;;23.23;13.35;;;30.70;97.20;;;;;;4161849;28;20053;-68
2022/03/19 10:02:20;;;;;;;23.45;13.60;;;30.70;97.20;;;;;;4178123;28;20037;-68
2022/03/19 10:04:30;;;;;;;21.58;13.70;;;30.70;97.30;;;;;;4157821;28;20033;-68
2022/03/19 10:09:04;;;;;;;15.48;12.20;;;30.60;97.70;;;;;;4174575;28;20076;-68
2022/03/19 10:11:13;;;;;;;17.08;12.30;;;30.60;97.60;;;;;;4177254;28;20053;-67
2022/03/19 10:13:18;;;;;;;15.07;11.65;;;30.60;97.60;;;;;;4172561;28;20594;-68
2022/03/19 10:15:23;;;;;;;15.55;12.50;;;30.60;97.70;;;;;;4162530;28;20044;-68
2022/03/19 10:17:34;;;;;;;13.10;11.80;;;30.60;97.70;;;;;;4163269;28;20106;-68
2022/03/19 10:19:50;;;;;;;13.30;11.88;;;30.60;97.80;;;;;;4160664;28;20511;-74
2022/03/19 10:21:55;;;;;;;16.52;13.00;;;30.50;97.80;;;;;;4161020;28;20057;-71
2022/03/19 10:24:01;;;;;;;22.05;14.57;;;30.60;97.90;;;;;;4169162;28;20037;-71
2022/03/19 10:26:07;;;;;;;21.98;14.05;;;30.60;97.80;;;;;;4162895;28;20046;-72
2022/03/19 10:28:13;;;;;;;20.27;13.98;;;30.50;97.90;;;;;;4161107;28;20063;-72
2022/03/19 10:30:20;;;;;;;17.08;13.40;;;30.50;97.80;;;;;;4161751;28;20442;-72
2022/03/19 10:32:28;;;;;;;15.82;12.93;;;30.50;97.90;;;;;;4163703;28;20042;-73
2022/03/19 10:34:34;;;;;;;19.50;14.85;;;30.50;97.80;;;;;;4161827;28;20522;-73
2022/03/19 10:36:41;;;;;;;17.25;13.93;;;30.50;98.00;;;;;;4161212;28;20050;-73
2022/03/19 10:38:49;;;;;;;19.17;14.80;;;30.40;97.80;;;;;;4160083;28;20048;-73
2022/03/19 10:41:00;;;;;;;16.63;14.77;;;30.40;97.90;;;;;;4161127;28;20038;-73
2022/03/19 10:43:10;;;;;;;16.52;14.73;;;30.40;98.00;;;;;;4142700;28;20128;-73
2022/03/19 10:45:21;;;;;;;18.10;16.02;;;30.30;98.00;;;;;;4161435;28;20100;-74
2022/03/19 10:47:29;;;;;;;24.30;17.85;;;30.30;98.10;;;;;;4160502;28;20043;-73
2022/03/19 10:49:41;;;;;;;20.17;17.23;;;30.30;98.20;;;;;;4186517;28;20058;-73
2022/03/19 10:51:54;;;;;;;22.67;18.10;;;30.30;98.30;;;;;;4159741;28;20034;-72
2022/03/19 10:54:00;;;;;;;18.75;16.75;;;30.30;98.30;;;;;;4161625;28;20464;-72
2022/03/19 10:56:12;;;;;;;19.00;15.90;;;30.20;98.30;;;;;;4184955;28;20045;-72
2022/03/19 10:58:38;;;;;;;17.35;14.60;;;30.20;98.30;;;;;;4160763;28;20053;-73
2022/03/19 11:00:48;;;;;;;22.40;15.30;;;30.20;98.40;;;;;;4160935;28;20049;-72
2022/03/19 11:03:00;;;;;;;15.88;14.27;;;30.20;98.50;;;;;;4182513;28;20047;-73
2022/03/19 11:05:07;;;;;;;16.50;14.70;;;30.20;98.60;;;;;;4160971;28;20128;-73
2022/03/19 11:07:13;;;;;;;16.88;15.07;;;30.10;98.60;;;;;;4161990;28;20754;-72